Time;durP1;ratioP1;P1;durP2;ratioP2;P2;SDS_P1;SDS_P2;PMS_P1;PMS_P2;Temp;Humidity;BMP_temperature;BMP_pressure;BME280_temperature;BME280_humidity;BME280_pressure;Samples;Min_cycle;Max_cycle;Signal;HPM_P1;HPM_P2
2022/11/23 00:01:09;;;;;;;0.20;0.20;;;10.50;99.90;;;;;;5006734;28;20018;-74
2022/11/23 00:03:35;;;;;;;1.48;1.45;;;10.40;99.90;;;;;;5006660;28;20037;-74
2022/11/23 00:06:01;;;;;;;0.10;0.10;;;10.40;99.90;;;;;;5003759;28;20045;-74
2022/11/23 00:08:27;;;;;;;0.20;0.20;;;10.50;99.90;;;;;;5002625;28;20056;-73
2022/11/23 00:10:57;;;;;;;0.20;0.20;;;10.50;99.90;;;;;;5000541;28;20029;-74
2022/11/23 00:13:23;;;;;;;0.20;0.20;;;10.50;99.90;;;;;;5001352;28;20041;-74
2022/11/23 00:15:49;;;;;;;0.20;0.20;;;10.50;99.90;;;;;;5001187;28;20532;-73
2022/11/23 00:18:15;;;;;;;0.20;0.20;;;10.50;99.90;;;;;;5002000;28;20258;-73
2022/11/23 00:20:41;;;;;;;0.20;0.20;;;10.50;99.90;;;;;;5002495;28;20521;-73
2022/11/23 00:23:07;;;;;;;0.20;0.20;;;10.40;99.90;;;;;;5002951;28;20022;-74
2022/11/23 00:25:34;;;;;;;0.10;0.10;;;10.40;99.90;;;;;;4986273;28;20576;-74
2022/11/23 00:27:59;;;;;;;0.20;0.20;;;10.40;99.90;;;;;;5001115;28;20022;-73
2022/11/23 00:30:25;;;;;;;0.20;0.20;;;10.30;99.90;;;;;;5002019;28;20398;-76
2022/11/23 00:32:51;;;;;;;0.10;0.10;;;10.20;99.90;;;;;;5003574;28;20026;-74
2022/11/23 00:35:18;;;;;;;0.20;0.20;;;10.20;99.90;;;;;;5004075;28;20037;-75
2022/11/23 00:37:44;;;;;;;0.13;0.13;;;10.20;99.90;;;;;;5009298;28;20018;-73
2022/11/23 00:40:10;;;;;;;0.20;0.20;;;10.20;99.90;;;;;;5010621;28;20033;-74
2022/11/23 00:42:36;;;;;;;0.10;0.10;;;10.30;99.90;;;;;;5008706;28;20045;-74
2022/11/23 00:45:01;;;;;;;0.20;0.20;;;10.20;99.90;;;;;;5008015;28;20026;-76
2022/11/23 00:47:27;;;;;;;0.20;0.20;;;10.10;99.90;;;;;;5002799;28;20048;-73
2022/11/23 00:49:53;;;;;;;0.20;0.20;;;10.10;99.90;;;;;;5003356;28;20323;-73
2022/11/23 00:52:19;;;;;;;0.20;0.20;;;;;;;;;;5004012;28;20060;-74
2022/11/23 00:54:45;;;;;;;0.20;0.20;;;10.10;99.90;;;;;;5004526;28;20512;-73
2022/11/23 00:57:10;;;;;;;0.20;0.20;;;10.10;99.90;;;;;;5004610;28;20037;-74
2022/11/23 00:59:36;;;;;;;0.20;0.20;;;10.10;99.90;;;;;;5001438;28;20470;-74
2022/11/23 01:02:02;;;;;;;0.20;0.20;;;10.00;99.90;;;;;;5000513;28;20029;-74
2022/11/23 01:04:28;;;;;;;0.30;0.30;;;10.00;99.90;;;;;;5000659;28;20325;-74
2022/11/23 01:06:56;;;;;;;0.20;0.20;;;10.00;99.90;;;;;;5000401;28;20121;-74
2022/11/23 01:09:25;;;;;;;0.20;0.20;;;9.90;99.90;;;;;;5000994;28;20037;-73
2022/11/23 01:11:52;;;;;;;1.40;1.40;;;9.80;99.90;;;;;;5001297;28;20385;-73
2022/11/23 01:14:18;;;;;;;0.20;0.20;;;9.70;99.90;;;;;;5000427;28;20105;-73
2022/11/23 01:16:44;;;;;;;0.20;0.20;;;9.60;99.90;;;;;;5002208;28;20018;-73
2022/11/23 01:19:12;;;;;;;0.20;0.20;;;9.50;99.90;;;;;;5000602;28;20053;-73
2022/11/23 01:21:38;;;;;;;0.20;0.20;;;9.60;99.90;;;;;;4983124;28;20049;-73
2022/11/23 01:24:06;;;;;;;0.20;0.20;;;9.80;99.90;;;;;;5002902;28;20034;-74
2022/11/23 01:26:32;;;;;;;0.20;0.20;;;9.90;99.90;;;;;;5001695;28;20025;-73
2022/11/23 01:28:58;;;;;;;0.20;0.20;;;9.90;99.90;;;;;;5000821;28;20096;-73
2022/11/23 01:31:25;;;;;;;0.20;0.20;;;9.90;99.90;;;;;;5000004;28;20026;-73
2022/11/23 01:33:56;;;;;;;0.20;0.20;;;9.90;99.90;;;;;;4985301;28;20045;-73
2022/11/23 01:36:24;;;;;;;0.20;0.20;;;9.90;99.90;;;;;;4999247;28;20090;-74
2022/11/23 01:38:51;;;;;;;0.20;0.20;;;9.90;99.90;;;;;;5001872;28;20125;-74
2022/11/23 01:41:19;;;;;;;0.20;0.20;;;9.80;99.90;;;;;;5000859;28;20215;-74
2022/11/23 01:43:45;;;;;;;0.25;0.25;;;9.80;99.90;;;;;;5000351;28;20046;-73
2022/11/23 01:46:11;;;;;;;0.20;0.20;;;9.80;99.90;;;;;;5000882;28;20644;-74
2022/11/23 01:49:02;;;;;;;0.20;0.20;;;9.80;99.90;;;;;;5000347;28;20136;-74
2022/11/23 01:51:38;;;;;;;0.20;0.20;;;9.80;99.90;;;;;;5000794;28;20505;-74
2022/11/23 01:54:27;;;;;;;0.28;0.28;;;9.70;99.90;;;;;;4999078;28;20026;-74
2022/11/23 01:56:58;;;;;;;0.15;0.15;;;9.60;99.90;;;;;;4999907;28;20018;-74
2022/11/23 01:59:25;;;;;;;0.10;0.10;;;9.50;99.90;;;;;;4999328;28;20271;-73
2022/11/23 02:01:51;;;;;;;0.10;0.10;;;9.40;99.90;;;;;;5000589;28;20076;-74
2022/11/23 02:04:40;;;;;;;0.20;0.20;;;9.40;99.90;;;;;;4999357;28;20691;-73
2022/11/23 02:07:07;;;;;;;0.10;0.10;;;9.40;99.90;;;;;;4983115;28;20381;-74
2022/11/23 02:09:34;;;;;;;5.32;4.93;;;9.40;99.90;;;;;;5000236;28;20038;-75
2022/11/23 02:12:00;;;;;;;0.20;0.20;;;9.30;99.90;;;;;;4999651;28;20382;-73
2022/11/23 02:14:26;;;;;;;0.20;0.20;;;9.30;99.90;;;;;;5000196;28;20061;-73
2022/11/23 02:16:52;;;;;;;0.98;0.98;;;9.20;99.90;;;;;;4999454;28;20026;-74
2022/11/23 02:19:59;;;;;;;0.10;0.10;;;9.10;99.90;;;;;;5000287;28;20044;-73
2022/11/23 02:22:37;;;;;;;0.20;0.20;;;9.10;99.90;;;;;;4899982;29;20047;-74
2022/11/23 02:25:26;;;;;;;0.10;0.10;;;9.00;99.90;;;;;;4900273;29;20036;-74
2022/11/23 02:27:53;;;;;;;0.10;0.10;;;9.00;99.90;;;;;;4903344;29;20096;-74
2022/11/23 02:30:19;;;;;;;0.10;0.10;;;9.00;99.90;;;;;;4903384;29;20052;-73
2022/11/23 02:32:45;;;;;;;3.67;3.47;;;9.10;99.90;;;;;;4906667;29;20092;-75
2022/11/23 02:35:11;;;;;;;0.82;0.82;;;9.00;99.90;;;;;;4909844;29;20036;-74
2022/11/23 02:37:38;;;;;;;0.95;0.95;;;8.90;99.90;;;;;;4911375;29;20278;-75
2022/11/23 02:40:15;;;;;;;0.10;0.10;;;8.80;99.90;;;;;;4910693;29;20256;-74
2022/11/23 02:42:42;;;;;;;0.20;0.20;;;8.80;99.90;;;;;;4907388;29;20035;-74
2022/11/23 02:45:38;;;;;;;0.20;0.20;;;8.80;99.90;;;;;;4911343;29;20063;-74
2022/11/23 02:48:04;;;;;;;6.50;6.20;;;8.70;99.90;;;;;;4909504;29;20033;-73
2022/11/23 02:50:30;;;;;;;0.13;0.13;;;8.70;99.90;;;;;;4905080;29;20091;-73
2022/11/23 02:52:56;;;;;;;0.13;0.13;;;6.60;99.90;;;;;;4887868;29;20476;-74
2022/11/23 02:55:22;;;;;;;0.10;0.10;;;8.70;99.90;;;;;;4904645;29;20098;-74
2022/11/23 02:57:48;;;;;;;0.20;0.20;;;8.70;99.90;;;;;;4904399;29;20040;-74
2022/11/23 03:00:14;;;;;;;0.20;0.20;;;8.60;99.90;;;;;;4996880;28;20064;-74
2022/11/23 03:02:40;;;;;;;0.10;0.10;;;8.60;99.90;;;;;;4985348;28;20018;-73
2022/11/23 03:05:06;;;;;;;0.13;0.13;;;8.50;99.90;;;;;;5002480;28;20104;-73
2022/11/23 03:07:32;;;;;;;3.10;3.00;;;8.40;99.90;;;;;;5002944;28;20535;-74
2022/11/23 03:09:58;;;;;;;0.15;0.15;;;8.40;99.90;;;;;;5005337;28;20061;-73
2022/11/23 03:12:24;;;;;;;0.28;0.28;;;8.20;99.90;;;;;;5002874;28;20465;-74
2022/11/23 03:14:50;;;;;;;0.20;0.20;;;8.20;99.90;;;;;;5002267;28;20196;-73
2022/11/23 03:17:15;;;;;;;0.10;0.10;;;8.20;99.90;;;;;;5002158;28;20022;-73
2022/11/23 03:19:41;;;;;;;0.35;0.35;;;8.10;99.90;;;;;;4983932;28;20498;-74
2022/11/23 03:22:07;;;;;;;0.20;0.20;;;8.00;99.90;;;;;;5002654;28;20089;-74
2022/11/23 03:24:33;;;;;;;0.10;0.10;;;8.00;99.90;;;;;;5002437;28;20782;-73
2022/11/23 03:26:59;;;;;;;0.10;0.10;;;7.90;99.90;;;;;;5002065;28;20021;-74
2022/11/23 03:29:25;;;;;;;0.10;0.10;;;8.00;99.90;;;;;;5001678;28;20632;-74
2022/11/23 03:31:52;;;;;;;0.10;0.10;;;8.00;99.90;;;;;;5001228;28;20120;-73
2022/11/23 03:34:18;;;;;;;0.20;0.20;;;8.00;99.90;;;;;;5002841;28;20110;-73
2022/11/23 03:36:43;;;;;;;2.60;2.50;;;8.00;99.90;;;;;;5001553;28;20085;-74
2022/11/23 03:39:09;;;;;;;0.45;0.45;;;8.00;99.90;;;;;;5001759;28;20527;-73
2022/11/23 03:41:35;;;;;;;0.20;0.20;;;7.80;99.90;;;;;;4985791;28;20203;-74
2022/11/23 03:44:01;;;;;;;0.10;0.10;;;7.70;99.90;;;;;;4984392;28;20040;-75
2022/11/23 03:46:27;;;;;;;0.10;0.10;;;7.70;99.90;;;;;;5002009;28;20030;-76
2022/11/23 03:48:52;;;;;;;0.10;0.10;;;7.70;99.90;;;;;;5007174;28;20099;-75
2022/11/23 03:51:18;;;;;;;24.85;22.35;;;7.60;99.90;;;;;;5011208;28;20040;-73
2022/11/23 03:53:44;;;;;;;0.10;0.10;;;7.60;99.90;;;;;;4991581;28;20091;-73
2022/11/23 03:56:10;;;;;;;1.05;1.05;;;;;;;;;;5009724;28;20097;-73
2022/11/23 03:58:36;;;;;;;0.10;0.10;;;7.60;99.90;;;;;;5005206;28;20321;-73
2022/11/23 04:01:01;;;;;;;0.10;0.10;;;7.70;99.90;;;;;;5002356;28;20295;-73
2022/11/23 04:03:27;;;;;;;0.10;0.10;;;7.60;99.90;;;;;;5002624;28;20021;-74
2022/11/23 04:05:53;;;;;;;0.10;0.10;;;7.60;99.90;;;;;;4983664;28;20069;-73
2022/11/23 04:08:19;;;;;;;0.20;0.20;;;7.50;99.90;;;;;;5004979;28;20667;-74
2022/11/23 04:10:45;;;;;;;0.20;0.20;;;7.50;99.90;;;;;;5002682;28;20711;-74
2022/11/23 04:13:12;;;;;;;0.10;0.10;;;6.50;99.90;;;;;;5002499;28;20037;-73
2022/11/23 04:15:38;;;;;;;0.00;0.00;;;7.40;99.90;;;;;;5000882;28;20030;-74
2022/11/23 04:18:04;;;;;;;0.10;0.10;;;7.40;99.90;;;;;;5001217;28;20030;-74
2022/11/23 04:20:29;;;;;;;0.10;0.10;;;7.50;99.90;;;;;;5000865;28;20018;-73
2022/11/23 04:22:55;;;;;;;0.05;0.05;;;7.40;99.90;;;;;;5000580;28;20084;-73
2022/11/23 04:25:21;;;;;;;0.10;0.10;;;7.40;99.90;;;;;;5001006;28;20029;-73
2022/11/23 04:27:47;;;;;;;0.10;0.10;;;6.70;99.90;;;;;;5000607;28;20034;-74
2022/11/23 04:30:13;;;;;;;0.20;0.20;;;7.40;99.90;;;;;;5000812;28;20096;-73
2022/11/23 04:32:39;;;;;;;0.10;0.10;;;7.20;99.90;;;;;;5000354;28;20076;-74
2022/11/23 04:35:04;;;;;;;0.10;0.10;;;8.00;99.90;;;;;;5004553;28;20030;-75
2022/11/23 04:37:30;;;;;;;0.10;0.10;;;;;;;;;;5000208;28;20030;-73
2022/11/23 04:39:56;;;;;;;0.13;0.13;;;7.40;99.90;;;;;;5000418;28;20505;-73
2022/11/23 04:42:22;;;;;;;0.10;0.10;;;7.40;99.90;;;;;;5001488;28;20049;-75
2022/11/23 04:44:48;;;;;;;11.70;11.00;;;7.10;99.90;;;;;;5000130;28;20057;-75
2022/11/23 04:47:14;;;;;;;0.10;0.10;;;7.40;99.90;;;;;;5000415;28;20029;-76
2022/11/23 04:49:39;;;;;;;0.20;0.20;;;7.50;99.90;;;;;;5001544;28;20060;-73
2022/11/23 04:52:06;;;;;;;0.10;0.10;;;7.40;99.90;;;;;;5001440;28;20500;-74
2022/11/23 04:54:32;;;;;;;0.10;0.10;;;7.50;99.90;;;;;;5002888;28;20024;-73
2022/11/23 04:56:58;;;;;;;0.10;0.10;;;7.50;99.90;;;;;;4999825;28;20022;-73
2022/11/23 04:59:24;;;;;;;0.10;0.10;;;7.50;99.90;;;;;;5000419;28;20041;-74
2022/11/23 05:01:51;;;;;;;0.10;0.10;;;7.50;99.90;;;;;;5000428;28;20026;-73
2022/11/23 05:04:18;;;;;;;0.10;0.10;;;7.60;99.90;;;;;;5000449;28;20110;-74
2022/11/23 05:06:44;;;;;;;0.13;0.13;;;7.60;99.90;;;;;;4999664;28;20044;-74
2022/11/23 05:09:10;;;;;;;0.20;0.20;;;7.70;99.90;;;;;;4999489;28;20121;-75
2022/11/23 05:11:36;;;;;;;0.10;0.10;;;7.70;99.90;;;;;;4999688;28;20033;-73
2022/11/23 05:14:02;;;;;;;0.10;0.10;;;7.60;99.90;;;;;;5000040;28;20028;-76
2022/11/23 05:16:27;;;;;;;0.10;0.10;;;7.70;99.90;;;;;;4981702;28;20022;-75
2022/11/23 05:18:53;;;;;;;0.20;0.20;;;7.70;99.90;;;;;;4999446;28;20444;-76
2022/11/23 05:21:19;;;;;;;0.20;0.20;;;7.60;99.90;;;;;;4999786;28;20433;-75
2022/11/23 05:23:48;;;;;;;0.17;0.17;;;7.60;99.90;;;;;;4998917;28;20022;-76
2022/11/23 05:26:21;;;;;;;0.15;0.15;;;7.60;99.90;;;;;;5000164;28;20024;-75
2022/11/23 05:28:47;;;;;;;0.20;0.20;;;7.60;99.90;;;;;;4983266;28;20026;-76
2022/11/23 05:31:12;;;;;;;0.10;0.10;;;9.20;99.90;;;;;;5002562;28;20306;-73
2022/11/23 05:33:39;;;;;;;0.10;0.10;;;7.70;99.90;;;;;;4999451;28;20074;-73
2022/11/23 05:36:05;;;;;;;0.30;0.30;;;7.70;99.90;;;;;;4999262;28;20026;-74
2022/11/23 05:38:31;;;;;;;0.10;0.10;;;7.70;99.90;;;;;;5005059;28;20022;-74
2022/11/23 05:40:57;;;;;;;0.13;0.13;;;7.70;99.90;;;;;;4999938;28;20022;-73
2022/11/23 05:43:24;;;;;;;0.20;0.20;;;7.70;99.90;;;;;;4999203;28;20058;-73
2022/11/23 05:45:50;;;;;;;0.10;0.10;;;7.70;99.90;;;;;;4981848;28;20394;-73
2022/11/23 05:48:16;;;;;;;0.10;0.10;;;7.70;99.90;;;;;;4999264;28;20191;-73
2022/11/23 05:50:41;;;;;;;0.10;0.10;;;7.70;99.90;;;;;;4999406;28;20041;-73
2022/11/23 05:53:08;;;;;;;0.10;0.10;;;7.70;99.90;;;;;;5001415;28;20502;-73
2022/11/23 05:55:34;;;;;;;0.20;0.20;;;7.70;99.90;;;;;;4999562;28;20219;-73
2022/11/23 05:58:00;;;;;;;0.10;0.10;;;7.80;99.90;;;;;;4982426;28;20386;-73
2022/11/23 06:00:26;;;;;;;0.20;0.20;;;7.80;99.90;;;;;;5002627;28;20054;-73
2022/11/23 06:03:00;;;;;;;0.10;0.10;;;7.80;99.90;;;;;;5000180;28;20022;-73
2022/11/23 06:05:26;;;;;;;;;;;7.80;99.90;;;;;;4999680;28;20524;-72
2022/11/23 06:07:53;;;;;;;0.10;0.10;;;7.80;99.90;;;;;;4999787;28;19909;-74
2022/11/23 06:10:19;;;;;;;0.13;0.13;;;7.80;99.90;;;;;;5004068;28;20033;-73
2022/11/23 06:12:45;;;;;;;0.10;0.10;;;7.90;99.90;;;;;;5004148;28;20029;-75
2022/11/23 06:15:11;;;;;;;0.20;0.20;;;7.90;99.90;;;;;;5004631;28;20065;-73
2022/11/23 06:17:37;;;;;;;0.10;0.10;;;7.90;99.90;;;;;;4985886;28;20034;-76
2022/11/23 06:20:06;;;;;;;0.10;0.10;;;7.90;99.90;;;;;;5003936;28;20060;-76
2022/11/23 06:22:32;;;;;;;0.10;0.10;;;7.90;99.90;;;;;;4987336;28;20214;-73
2022/11/23 06:24:58;;;;;;;0.10;0.10;;;7.90;99.90;;;;;;5003435;28;20014;-73
2022/11/23 06:27:24;;;;;;;0.10;0.10;;;7.90;99.90;;;;;;5002798;28;20106;-75
2022/11/23 06:29:49;;;;;;;0.10;0.10;;;8.00;99.90;;;;;;5002764;28;20034;-75
2022/11/23 06:32:16;;;;;;;0.13;0.13;;;8.10;99.90;;;;;;4985184;28;20497;-75
2022/11/23 06:34:42;;;;;;;0.10;0.10;;;8.10;99.90;;;;;;5003145;28;20026;-75
2022/11/23 06:37:07;;;;;;;0.20;0.20;;;8.20;99.90;;;;;;5003980;28;20535;-75
2022/11/23 06:39:33;;;;;;;0.20;0.20;;;8.20;99.90;;;;;;5003373;28;20030;-75
2022/11/23 06:41:59;;;;;;;0.20;0.20;;;8.30;99.90;;;;;;5003218;28;20045;-75
2022/11/23 06:44:25;;;;;;;0.20;0.20;;;;;;;;;;5006013;28;20101;-77
2022/11/23 06:46:51;;;;;;;0.20;0.20;;;8.30;99.90;;;;;;5005488;28;20409;-75
2022/11/23 06:49:18;;;;;;;0.20;0.20;;;8.40;99.90;;;;;;5005926;28;20033;-75
2022/11/23 06:51:45;;;;;;;0.20;0.20;;;8.60;99.90;;;;;;5007846;28;20037;-75
2022/11/23 06:54:11;;;;;;;0.20;0.20;;;8.60;99.90;;;;;;5004390;28;20033;-76
2022/11/23 06:56:37;;;;;;;0.10;0.10;;;8.80;99.90;;;;;;5004536;28;20386;-76
2022/11/23 06:59:03;;;;;;;0.20;0.20;;;8.90;99.90;;;;;;5007645;28;20295;-74
2022/11/23 07:01:29;;;;;;;0.10;0.10;;;9.00;99.90;;;;;;5007382;28;20720;-73
2022/11/23 07:03:55;;;;;;;0.20;0.20;;;9.20;99.90;;;;;;5013085;28;20022;-75
2022/11/23 07:06:20;;;;;;;0.20;0.20;;;9.30;99.90;;;;;;5012092;28;20135;-74
2022/11/23 07:08:46;;;;;;;0.15;0.15;;;9.30;99.90;;;;;;5010566;28;20110;-74
2022/11/23 07:11:12;;;;;;;0.20;0.20;;;9.40;99.90;;;;;;5009390;28;20547;-76
2022/11/23 07:13:38;;;;;;;0.20;0.20;;;9.50;99.90;;;;;;5002942;28;20014;-74
2022/11/23 07:16:05;;;;;;;0.20;0.20;;;9.60;99.90;;;;;;5004610;28;20053;-73
2022/11/23 07:18:31;;;;;;;0.10;0.10;;;9.80;99.90;;;;;;5004399;28;20102;-73
2022/11/23 07:20:58;;;;;;;0.20;0.20;;;9.90;99.90;;;;;;5001665;28;20026;-74
2022/11/23 07:23:24;;;;;;;0.10;0.10;;;10.00;99.90;;;;;;5001668;28;20021;-73
2022/11/23 07:25:50;;;;;;;1.55;1.55;;;10.10;99.90;;;;;;4984753;28;20433;-74
2022/11/23 07:28:16;;;;;;;0.20;0.20;;;10.20;99.90;;;;;;5002075;28;20030;-74
2022/11/23 07:30:42;;;;;;;0.15;0.15;;;10.20;99.90;;;;;;5001930;28;20030;-73
2022/11/23 07:33:10;;;;;;;0.15;0.15;;;10.20;99.90;;;;;;4984633;28;20018;-74
2022/11/23 07:35:37;;;;;;;0.20;0.20;;;10.30;99.90;;;;;;5002446;28;20307;-73
2022/11/23 07:38:06;;;;;;;0.20;0.20;;;10.30;99.90;;;;;;5001782;28;20456;-76
2022/11/23 07:40:33;;;;;;;0.20;0.20;;;10.30;99.90;;;;;;5001988;28;20197;-76
2022/11/23 07:43:00;;;;;;;0.20;0.20;;;10.30;99.90;;;;;;5003177;28;20044;-74
2022/11/23 07:45:27;;;;;;;0.20;0.20;;;10.30;99.90;;;;;;5001633;28;20034;-73
2022/11/23 07:48:04;;;;;;;0.20;0.20;;;10.30;99.90;;;;;;5002208;28;20260;-74
2022/11/23 07:50:30;;;;;;;0.15;0.15;;;10.30;99.90;;;;;;5001696;28;20368;-73
2022/11/23 07:52:56;;;;;;;0.25;0.25;;;10.20;99.90;;;;;;4984891;28;20057;-75
2022/11/23 07:55:22;;;;;;;0.20;0.20;;;10.20;99.90;;;;;;5002515;28;20509;-76
2022/11/23 07:57:53;;;;;;;0.20;0.20;;;10.20;99.90;;;;;;5001389;28;20830;-73
2022/11/23 08:00:19;;;;;;;0.20;0.20;;;10.20;99.90;;;;;;5001291;28;20482;-73
2022/11/23 08:02:46;;;;;;;0.20;0.20;;;10.10;99.90;;;;;;5000530;28;20021;-73
2022/11/23 08:05:12;;;;;;;0.68;0.68;;;10.10;99.90;;;;;;4982750;28;20898;-73
2022/11/23 08:07:38;;;;;;;0.20;0.20;;;10.10;99.90;;;;;;5000098;28;20029;-73
2022/11/23 08:10:04;;;;;;;0.85;0.85;;;10.50;99.90;;;;;;4983188;28;20036;-75
2022/11/23 08:12:30;;;;;;;0.20;0.20;;;10.50;99.90;;;;;;5002266;28;20137;-73
2022/11/23 08:14:56;;;;;;;0.55;0.55;;;10.00;99.90;;;;;;5003507;28;20858;-73
2022/11/23 08:17:22;;;;;;;0.20;0.20;;;9.90;99.90;;;;;;5003047;28;20056;-76
2022/11/23 08:19:47;;;;;;;0.20;0.20;;;9.90;99.90;;;;;;5001226;28;20025;-73
2022/11/23 08:22:13;;;;;;;0.40;0.40;;;9.90;99.90;;;;;;5002591;28;20022;-73
2022/11/23 08:24:39;;;;;;;1.27;1.27;;;9.90;99.90;;;;;;5000998;28;20802;-73
2022/11/23 08:27:05;;;;;;;0.20;0.20;;;10.00;99.90;;;;;;5000333;28;20717;-74
2022/11/23 08:29:30;;;;;;;0.10;0.10;;;10.00;99.90;;;;;;5000339;28;20037;-73
2022/11/23 08:31:56;;;;;;;0.20;0.20;;;10.10;99.90;;;;;;5000255;28;20026;-73
2022/11/23 08:34:22;;;;;;;0.13;0.13;;;10.10;99.90;;;;;;5000399;28;20034;-74
2022/11/23 08:36:48;;;;;;;0.20;0.20;;;10.20;99.90;;;;;;5001616;28;20025;-74
2022/11/23 08:39:14;;;;;;;0.20;0.20;;;10.30;99.90;;;;;;5000632;28;20662;-73
2022/11/23 08:41:41;;;;;;;2.92;2.83;;;10.40;99.90;;;;;;4999888;28;20106;-73
2022/11/23 08:44:10;;;;;;;0.20;0.20;;;10.50;99.90;;;;;;5000859;28;20010;-73
2022/11/23 08:46:36;;;;;;;0.20;0.20;;;10.70;99.90;;;;;;4983271;28;20037;-73
2022/11/23 08:49:02;;;;;;;0.10;0.10;;;10.80;99.90;;;;;;4999006;28;20038;-74
2022/11/23 08:51:28;;;;;;;0.20;0.20;;;10.90;99.90;;;;;;5000011;28;20056;-73
2022/11/23 08:53:54;;;;;;;0.20;0.20;;;11.00;99.90;;;;;;4999962;28;20022;-73
2022/11/23 08:56:20;;;;;;;0.20;0.20;;;11.10;99.90;;;;;;4982129;28;20535;-73
2022/11/23 08:58:46;;;;;;;0.10;0.10;;;11.10;99.90;;;;;;4999514;28;20219;-73
2022/11/23 09:01:14;;;;;;;0.20;0.20;;;11.10;99.90;;;;;;5001340;28;20104;-73
2022/11/23 09:03:40;;;;;;;0.30;0.30;;;11.20;99.90;;;;;;5000339;28;20156;-75
2022/11/23 09:06:07;;;;;;;0.17;0.17;;;11.30;99.90;;;;;;5002722;28;20033;-75
2022/11/23 09:08:34;;;;;;;0.20;0.20;;;11.30;99.90;;;;;;5001262;28;20041;-75
2022/11/23 09:11:01;;;;;;;0.30;0.30;;;11.20;99.90;;;;;;4999432;28;20094;-75
2022/11/23 09:13:28;;;;;;;0.20;0.20;;;11.20;99.90;;;;;;4981886;28;20080;-75
2022/11/23 09:16:01;;;;;;;0.20;0.20;;;11.40;99.90;;;;;;4999014;28;20028;-75
2022/11/23 09:18:35;;;;;;;0.20;0.20;;;11.40;99.90;;;;;;4999111;28;20169;-75
2022/11/23 09:21:03;;;;;;;0.25;0.25;;;11.50;99.90;;;;;;4999382;28;20241;-76
2022/11/23 09:23:29;;;;;;;0.20;0.20;;;11.40;99.90;;;;;;4998988;28;20022;-75
2022/11/23 09:25:58;;;;;;;0.10;0.10;;;11.60;99.90;;;;;;4998626;28;20033;-76
2022/11/23 09:28:26;;;;;;;0.20;0.20;;;11.90;99.90;;;;;;4998211;28;20111;-75
2022/11/23 09:30:52;;;;;;;0.40;0.40;;;12.30;99.90;;;;;;4979651;28;20686;-74
2022/11/23 09:33:18;;;;;;;0.20;0.20;;;12.70;99.90;;;;;;4997683;28;20758;-75
2022/11/23 09:35:44;;;;;;;0.10;0.10;;;13.20;99.90;;;;;;4997892;28;20093;-75
2022/11/23 09:38:10;;;;;;;0.40;0.40;;;13.20;99.90;;;;;;4997484;28;20683;-77
2022/11/23 09:40:39;;;;;;;0.35;0.35;;;13.40;99.90;;;;;;4997542;28;20429;-76
2022/11/23 09:43:29;;;;;;;0.20;0.20;;;13.80;99.90;;;;;;4998449;28;20034;-75
2022/11/23 09:45:59;;;;;;;0.50;0.50;;;13.80;99.90;;;;;;5001624;28;20165;-75
2022/11/23 09:48:33;;;;;;;0.10;0.10;;;14.00;99.90;;;;;;5001161;28;20014;-75
2022/11/23 09:51:13;;;;;;;0.20;0.20;;;14.10;99.90;;;;;;5001441;28;20087;-82
2022/11/23 09:53:45;;;;;;;0.20;0.20;;;14.10;99.90;;;;;;5001288;28;20017;-75
2022/11/23 09:56:25;;;;;;;2.05;1.95;;;14.20;99.90;;;;;;5001443;28;20083;-75
2022/11/23 09:58:55;;;;;;;0.10;0.10;;;14.10;99.90;;;;;;5001597;28;20022;-75
2022/11/23 10:01:21;;;;;;;0.10;0.10;;;14.10;99.90;;;;;;5001004;28;20626;-74
2022/11/23 10:03:47;;;;;;;0.10;0.10;;;14.20;99.90;;;;;;5001536;28;20022;-75
2022/11/23 10:06:26;;;;;;;0.10;0.10;;;14.10;99.90;;;;;;4983559;28;20092;-74
2022/11/23 10:09:00;;;;;;;0.10;0.10;;;17.30;99.90;;;;;;5001151;28;20146;-75
2022/11/23 10:11:51;;;;;;;0.10;0.10;;;13.50;99.90;;;;;;5001480;28;20016;-74
2022/11/23 10:14:41;;;;;;;0.20;0.20;;;13.40;99.90;;;;;;5000483;28;20036;-79
2022/11/23 10:17:47;;;;;;;0.10;0.10;;;13.30;99.90;;;;;;4984171;28;20452;-75
2022/11/23 10:20:47;;;;;;;0.15;0.15;;;13.10;99.90;;;;;;5001879;28;20029;-77
2022/11/23 10:23:28;;;;;;;0.10;0.10;;;13.00;99.90;;;;;;5002462;28;20133;-74
2022/11/23 10:25:54;;;;;;;0.20;0.20;;;12.80;99.90;;;;;;5001848;28;20026;-76
2022/11/23 10:28:22;;;;;;;0.10;0.10;;;12.70;99.90;;;;;;5001972;28;20079;-74
2022/11/23 10:30:59;;;;;;;0.15;0.15;;;12.60;99.90;;;;;;5001316;28;20030;-74
2022/11/23 10:33:33;;;;;;;0.10;0.10;;;12.60;99.90;;;;;;4983695;28;20025;-74
2022/11/23 10:35:59;;;;;;;0.10;0.10;;;12.40;99.90;;;;;;5000132;28;20025;-73
2022/11/23 10:38:26;;;;;;;0.20;0.20;;;12.40;99.90;;;;;;4983630;28;20026;-75
2022/11/23 10:40:54;;;;;;;0.20;0.20;;;12.30;99.90;;;;;;5001323;28;20065;-75
2022/11/23 10:43:27;;;;;;;0.20;0.20;;;12.20;99.90;;;;;;5002763;28;20014;-74
2022/11/23 10:46:23;;;;;;;0.20;0.20;;;12.20;99.90;;;;;;5001542;28;20104;-74
2022/11/23 10:48:50;;;;;;;1.17;1.17;;;12.00;99.90;;;;;;5000899;28;20674;-74
2022/11/23 10:51:32;;;;;;;0.20;0.20;;;12.30;99.90;;;;;;5001501;28;20029;-74
2022/11/23 10:54:18;;;;;;;0.73;0.73;;;12.90;99.90;;;;;;5000663;28;20215;-75
2022/11/23 10:56:49;;;;;;;0.20;0.20;;;12.80;99.90;;;;;;4982189;28;20037;-74
2022/11/23 10:59:32;;;;;;;0.20;0.20;;;12.70;99.90;;;;;;5000059;28;20018;-75
2022/11/23 11:02:21;;;;;;;0.20;0.20;;;12.60;99.90;;;;;;5001998;28;20018;-75
2022/11/23 11:04:48;;;;;;;0.28;0.28;;;12.50;99.90;;;;;;4983468;28;20113;-78
2022/11/23 11:07:18;;;;;;;0.20;0.20;;;12.40;99.90;;;;;;5000502;28;20030;-75
2022/11/23 11:09:55;;;;;;;0.20;0.20;;;12.20;99.90;;;;;;4984193;28;20042;-75
2022/11/23 11:12:22;;;;;;;2.15;2.05;;;12.30;99.90;;;;;;5001301;28;20014;-75
2022/11/23 11:14:57;;;;;;;0.17;0.17;;;12.30;99.90;;;;;;5001618;28;20032;-75
2022/11/23 11:17:28;;;;;;;0.20;0.20;;;12.40;99.90;;;;;;5000401;28;20028;-74
2022/11/23 11:19:54;;;;;;;0.20;0.20;;;12.30;99.90;;;;;;5000115;28;20057;-75
2022/11/23 11:22:40;;;;;;;0.10;0.10;;;12.20;99.90;;;;;;5000461;28;20653;-75
2022/11/23 11:25:25;;;;;;;0.20;0.20;;;12.10;99.90;;;;;;5000213;28;20109;-74
2022/11/23 11:27:51;;;;;;;0.20;0.20;;;12.00;99.90;;;;;;5000069;28;20030;-74
2022/11/23 11:30:22;;;;;;;0.20;0.20;;;11.90;99.90;;;;;;5002488;28;20112;-74
2022/11/23 11:33:10;;;;;;;0.20;0.20;;;11.90;99.90;;;;;;5002180;28;20018;-75
2022/11/23 11:35:39;;;;;;;0.35;0.35;;;11.90;99.90;;;;;;5001654;28;20127;-75
2022/11/23 11:38:18;;;;;;;0.68;0.68;;;11.60;99.90;;;;;;4983289;28;20084;-75
2022/11/23 11:40:51;;;;;;;0.10;0.10;;;11.80;99.90;;;;;;5001691;28;20037;-74
2022/11/23 11:43:43;;;;;;;0.20;0.20;;;11.70;99.90;;;;;;5001684;28;20100;-74
2022/11/23 11:46:21;;;;;;;0.20;0.20;;;11.70;99.90;;;;;;5002666;28;20026;-75
2022/11/23 11:48:54;;;;;;;0.20;0.20;;;11.60;99.90;;;;;;5001221;28;20042;-74
2022/11/23 11:51:26;;;;;;;0.10;0.10;;;11.60;99.90;;;;;;5000034;28;20044;-75
2022/11/23 11:54:23;;;;;;;0.55;0.55;;;11.60;99.90;;;;;;4984437;28;20101;-74
2022/11/23 11:56:51;;;;;;;0.20;0.20;;;11.50;99.90;;;;;;5000151;28;20681;-75
2022/11/23 11:59:41;;;;;;;1.75;1.65;;;11.50;99.90;;;;;;5000504;28;20570;-74
2022/11/23 12:02:13;;;;;;;0.20;0.20;;;11.60;99.90;;;;;;4982270;28;20033;-74
2022/11/23 12:05:13;;;;;;;0.22;0.22;;;11.80;99.90;;;;;;4998876;28;20266;-74
2022/11/23 12:07:38;;;;;;;0.10;0.10;;;12.60;99.90;;;;;;4981264;28;20735;-74
2022/11/23 12:10:13;;;;;;;0.20;0.20;;;12.20;99.90;;;;;;4999056;28;20698;-74
2022/11/23 12:12:38;;;;;;;0.57;0.57;;;12.30;99.90;;;;;;5000161;28;20030;-75
2022/11/23 12:15:05;;;;;;;0.20;0.20;;;12.20;99.90;;;;;;4999988;28;20600;-74
2022/11/23 12:17:50;;;;;;;0.20;0.20;;;11.90;99.90;;;;;;4999439;28;20573;-74
2022/11/23 12:20:28;;;;;;;0.20;0.20;;;11.50;99.90;;;;;;5000840;28;20029;-75
2022/11/23 12:23:30;;;;;;;0.20;0.20;;;11.30;99.90;;;;;;5003402;28;20014;-74
2022/11/23 12:25:58;;;;;;;0.10;0.10;;;10.90;99.90;;;;;;5004692;28;20084;-74
2022/11/23 12:28:50;;;;;;;0.20;0.20;;;10.60;99.90;;;;;;5003441;28;20614;-75
2022/11/23 12:31:27;;;;;;;0.60;0.60;;;10.60;99.90;;;;;;4902584;29;20044;-74
2022/11/23 12:33:59;;;;;;;0.20;0.20;;;10.40;99.90;;;;;;4903806;29;20061;-74
2022/11/23 12:36:33;;;;;;;0.40;0.40;;;10.40;99.90;;;;;;4903114;29;20076;-74
2022/11/23 12:39:32;;;;;;;0.20;0.20;;;10.20;99.90;;;;;;4903424;29;20038;-74
2022/11/23 12:42:16;;;;;;;0.20;0.20;;;10.30;99.90;;;;;;4902885;29;20277;-74
2022/11/23 12:45:00;;;;;;;1.88;1.85;;;10.20;99.90;;;;;;4902303;29;20573;-75
2022/11/23 12:47:44;;;;;;;0.10;0.10;;;10.10;99.90;;;;;;4902946;29;20719;-74
2022/11/23 12:50:28;;;;;;;;;;;10.00;99.90;;;;;;4902987;29;20075;-74
2022/11/23 12:53:25;;;;;;;0.15;0.15;;;9.90;99.90;;;;;;4902189;29;19903;-74
2022/11/23 12:56:03;;;;;;;0.25;0.25;;;9.80;99.90;;;;;;4902264;29;20035;-74
2022/11/23 12:58:30;;;;;;;0.20;0.20;;;9.70;99.90;;;;;;4887425;29;20690;-74
2022/11/23 13:01:11;;;;;;;0.20;0.20;;;9.70;99.90;;;;;;4887095;29;20163;-74
2022/11/23 13:04:04;;;;;;;0.20;0.20;;;9.60;99.90;;;;;;4901831;29;20115;-74
2022/11/23 13:06:48;;;;;;;0.20;0.20;;;9.60;99.90;;;;;;4900926;29;20052;-74